Time;durP1;ratioP1;P1;durP2;ratioP2;P2;SDS_P1;SDS_P2;PMS_P1;PMS_P2;Temp;Humidity;BMP_temperature;BMP_pressure;BME280_temperature;BME280_humidity;BME280_pressure;Samples;Min_cycle;Max_cycle;Signal;HPM_P1;HPM_P2
2023/03/31 00:01:23;;;;;;;8.63;3.85;;;;;;;;;;4963389;28;20026;-72
2023/03/31 00:04:12;;;;;;;7.25;4.13;;;;;;;;;;4979290;28;20030;-73
2023/03/31 00:06:57;;;;;;;7.65;3.85;;;;;;;;;;4978768;28;20035;-73
2023/03/31 00:09:44;;;;;;;5.13;3.30;;;;;;;;;;4964422;28;20039;-72
2023/03/31 00:12:30;;;;;;;5.30;3.10;;;;;;;;;;4963876;28;20131;-73
2023/03/31 00:15:16;;;;;;;5.13;3.05;;;;;;;;;;4963450;28;20105;-73
2023/03/31 00:18:01;;;;;;;4.93;2.78;;;;;;;;;;4978724;28;20022;-73
2023/03/31 00:20:47;;;;;;;8.02;2.90;;;;;;;;;;4978070;28;20023;-72
2023/03/31 00:23:33;;;;;;;9.27;4.93;;;;;;;;;;4977509;28;20046;-73
2023/03/31 00:26:18;;;;;;;8.98;4.78;;;;;;;;;;4978339;28;20027;-73
2023/03/31 00:29:05;;;;;;;9.10;6.05;;;;;;;;;;4977633;28;20027;-72
2023/03/31 00:31:50;;;;;;;9.90;5.55;;;;;;;;;;4978791;28;20114;-72
2023/03/31 00:34:37;;;;;;;9.73;5.30;;;;;;;;;;4978088;28;20025;-73
2023/03/31 00:37:23;;;;;;;8.98;4.93;;;;;;;;;;4964223;28;20038;-73
2023/03/31 00:40:09;;;;;;;7.55;3.90;;;;;;;;;;4964151;28;20109;-73
2023/03/31 00:42:55;;;;;;;7.40;4.13;;;;;;;;;;4963779;28;20019;-73
2023/03/31 00:45:40;;;;;;;6.57;4.15;;;;;;;;;;4963652;28;20035;-73
2023/03/31 00:48:26;;;;;;;10.57;4.53;;;;;;;;;;4977783;28;20579;-72
2023/03/31 00:51:13;;;;;;;7.10;4.07;;;;;;;;;;4976794;28;20026;-72
2023/03/31 00:54:03;;;;;;;10.10;4.80;;;;;;;;;;4963232;28;20026;-72
2023/03/31 00:56:51;;;;;;;10.43;4.80;;;;;;;;;;4963753;28;20015;-72
2023/03/31 00:59:42;;;;;;;10.77;5.18;;;;;;;;;;4964616;28;20038;-72
2023/03/31 01:02:28;;;;;;;8.32;5.32;;;;;;;;;;4963088;28;20058;-72
2023/03/31 01:05:14;;;;;;;9.27;4.60;;;;;;;;;;4977138;28;20033;-73
2023/03/31 01:08:01;;;;;;;9.52;4.90;;;;;;;;;;4977163;28;20466;-72
2023/03/31 01:10:48;;;;;;;7.75;4.65;;;;;;;;;;4977391;28;20034;-73
2023/03/31 01:13:35;;;;;;;9.48;5.00;;;;;;;;;;4977584;28;20081;-72
2023/03/31 01:16:21;;;;;;;10.52;4.88;;;;;;;;;;4977673;28;20023;-73
2023/03/31 01:19:15;;;;;;;10.25;4.93;;;;;;;;;;4994701;28;20086;-72
2023/03/31 01:22:15;;;;;;;10.52;5.40;;;;;;;;;;4978184;28;20105;-72
2023/03/31 01:25:13;;;;;;;10.35;4.72;;;;;;;;;;4976713;28;20027;-72
2023/03/31 01:28:08;;;;;;;10.60;5.30;;;;;;;;;;4976713;28;20093;-73
2023/03/31 01:31:17;;;;;;;8.80;5.00;;;;;;;;;;4977444;28;20096;-73
2023/03/31 01:34:21;;;;;;;8.32;4.90;;;;;;;;;;4952343;28;20034;-72
2023/03/31 01:37:20;;;;;;;8.57;5.28;;;;;;;;;;4984940;28;20034;-71
2023/03/31 01:40:27;;;;;;;13.15;6.50;;;;;;;;;;4986065;28;20034;-72
2023/03/31 01:43:23;;;;;;;11.45;5.60;;;;;;;;;;4977479;28;20045;-72
2023/03/31 01:46:15;;;;;;;10.35;6.68;;;;;;;;;;4963359;28;20027;-72
2023/03/31 01:49:00;;;;;;;13.00;6.65;;;;;;;;;;4976622;28;20454;-72
2023/03/31 01:51:49;;;;;;;14.02;6.53;;;;;;;;;;4976740;28;20023;-73
2023/03/31 01:54:41;;;;;;;10.13;6.68;;;;;;;;;;4976322;28;20030;-72
2023/03/31 01:57:29;;;;;;;10.20;6.38;;;;;;;;;;4977247;28;20019;-72
2023/03/31 02:00:21;;;;;;;12.48;6.68;;;;;;;;;;4977917;28;20022;-73
2023/03/31 02:03:36;;;;;;;12.70;6.63;;;;;;;;;;4980301;28;20077;-73
2023/03/31 02:06:25;;;;;;;13.73;6.15;;;;;;;;;;4974670;28;20034;-72
2023/03/31 02:09:15;;;;;;;11.93;6.13;;;;;;;;;;4966252;28;20037;-73
2023/03/31 02:12:03;;;;;;;10.73;5.78;;;;;;;;;;4981095;28;20121;-71
2023/03/31 02:14:51;;;;;;;7.80;4.47;;;;;;;;;;4980512;28;20091;-72
2023/03/31 02:17:39;;;;;;;7.45;4.10;;;;;;;;;;4981214;28;20018;-72
2023/03/31 02:20:26;;;;;;;8.75;4.03;;;;;;;;;;4980968;28;20431;-72
2023/03/31 02:23:12;;;;;;;7.28;3.85;;;;;;;;;;4980280;28;20404;-72
2023/03/31 02:26:00;;;;;;;8.60;4.00;;;;;;;;;;4980370;28;20371;-73
2023/03/31 02:28:46;;;;;;;6.88;3.90;;;;;;;;;;4966508;28;20414;-72
2023/03/31 02:31:43;;;;;;;7.75;3.67;;;;;;;;;;4979076;28;20059;-73
2023/03/31 02:34:28;;;;;;;6.35;3.45;;;;;;;;;;4980123;28;20015;-73
2023/03/31 02:37:14;;;;;;;5.70;3.35;;;;;;;;;;4979412;28;20051;-73
2023/03/31 02:40:01;;;;;;;7.35;3.30;;;;;;;;;;4979836;28;20027;-74
2023/03/31 02:42:49;;;;;;;4.93;3.20;;;;;;;;;;4980350;28;20023;-72
2023/03/31 02:45:42;;;;;;;5.55;3.47;;;;;;;;;;4965991;28;20026;-72
2023/03/31 02:48:29;;;;;;;5.53;3.30;;;;;;;;;;4966071;28;20031;-72
2023/03/31 02:51:21;;;;;;;5.43;3.20;;;;;;;;;;4979867;28;20030;-73
2023/03/31 02:54:06;;;;;;;4.53;3.20;;;;;;;;;;4979496;28;20428;-71
2023/03/31 02:57:11;;;;;;;5.55;3.50;;;;;;;;;;4964670;28;20067;-72
2023/03/31 03:00:08;;;;;;;7.30;4.30;;;;;;;;;;4979759;28;20428;-72
2023/03/31 03:02:54;;;;;;;9.50;4.28;;;;;;;;;;4979448;28;20027;-73
2023/03/31 03:05:48;;;;;;;7.15;4.10;;;;;;;;;;4965433;28;20034;-74
2023/03/31 03:08:54;;;;;;;6.47;3.83;;;;;;;;;;4965474;28;20033;-73
2023/03/31 03:11:51;;;;;;;6.78;3.72;;;;;;;;;;4979958;28;20337;-74
2023/03/31 03:14:43;;;;;;;5.95;3.80;;;;;;;;;;4964789;28;20424;-73
2023/03/31 03:17:31;;;;;;;6.57;3.70;;;;;;;;;;4963975;28;20136;-74
2023/03/31 03:20:18;;;;;;;5.68;3.78;;;;;;;;;;4979268;28;20037;-74
2023/03/31 03:23:04;;;;;;;8.93;4.20;;;;;;;;;;4978806;28;20046;-74
2023/03/31 03:25:50;;;;;;;8.90;4.15;;;;;;;;;;4965243;28;20088;-72
2023/03/31 03:28:35;;;;;;;6.03;3.85;;;;;;;;;;4964929;28;20031;-74
2023/03/31 03:31:22;;;;;;;5.35;3.65;;;;;;;;;;4978434;28;20093;-73
2023/03/31 03:34:08;;;;;;;7.65;4.10;;;;;;;;;;4978952;28;20062;-72
2023/03/31 03:36:54;;;;;;;8.45;4.20;;;;;;;;;;4979285;28;20050;-73
2023/03/31 03:39:40;;;;;;;5.68;3.35;;;;;;;;;;4979281;28;20041;-72
2023/03/31 03:42:25;;;;;;;6.53;4.00;;;;;;;;;;4979652;28;20033;-73
2023/03/31 03:45:11;;;;;;;7.05;4.25;;;;;;;;;;4996255;28;20034;-71
2023/03/31 03:47:56;;;;;;;7.10;3.95;;;;;;;;;;4979393;28;20443;-72
2023/03/31 03:50:43;;;;;;;8.55;4.60;;;;;;;;;;4978390;28;20076;-72
2023/03/31 03:53:29;;;;;;;7.55;4.00;;;;;;;;;;4978711;28;20423;-73
2023/03/31 03:56:15;;;;;;;10.65;4.60;;;;;;;;;;4978568;28;20037;-72
2023/03/31 03:59:00;;;;;;;8.52;4.65;;;;;;;;;;4965113;28;20022;-72
2023/03/31 04:01:46;;;;;;;7.47;4.53;;;;;;;;;;4985615;28;20050;-73
2023/03/31 04:04:31;;;;;;;8.60;4.60;;;;;;;;;;4986193;28;20432;-72
2023/03/31 04:07:17;;;;;;;8.55;4.55;;;;;;;;;;4977002;28;20034;-73
2023/03/31 04:10:03;;;;;;;8.02;4.85;;;;;;;;;;4977335;28;20447;-72
2023/03/31 04:12:48;;;;;;;8.55;5.10;;;;;;;;;;4964567;28;20026;-72
2023/03/31 04:15:34;;;;;;;10.40;4.88;;;;;;;;;;4978675;28;20105;-72
2023/03/31 04:18:22;;;;;;;8.57;4.90;;;;;;;;;;4978995;28;20023;-72
2023/03/31 04:21:11;;;;;;;8.88;5.45;;;;;;;;;;4981216;28;20023;-72
2023/03/31 04:24:03;;;;;;;9.50;5.55;;;;;;;;;;4966834;28;20530;-74
2023/03/31 04:26:49;;;;;;;8.35;5.40;;;;;;;;;;4979289;28;20046;-71
2023/03/31 04:29:36;;;;;;;8.02;4.72;;;;;;;;;;4978393;28;20031;-73
2023/03/31 04:32:22;;;;;;;12.15;5.15;;;;;;;;;;4978383;28;20034;-73
2023/03/31 04:35:07;;;;;;;9.02;5.35;;;;;;;;;;4964335;28;20089;-72
2023/03/31 04:37:57;;;;;;;9.30;6.03;;;;;;;;;;4979321;28;20088;-72
2023/03/31 04:40:44;;;;;;;9.00;5.65;;;;;;;;;;4978036;28;20062;-73
2023/03/31 04:43:29;;;;;;;9.02;5.55;;;;;;;;;;4977782;28;20023;-74
2023/03/31 04:46:15;;;;;;;9.30;5.72;;;;;;;;;;4964276;28;20018;-74
2023/03/31 04:49:01;;;;;;;11.13;5.60;;;;;;;;;;4977774;28;20026;-74
2023/03/31 04:51:47;;;;;;;12.57;5.63;;;;;;;;;;4977631;28;20344;-73
2023/03/31 04:54:32;;;;;;;8.23;5.70;;;;;;;;;;4977126;28;20033;-73
2023/03/31 04:57:18;;;;;;;13.70;6.93;;;;;;;;;;4964031;28;20027;-74
2023/03/31 05:00:06;;;;;;;10.90;6.75;;;;;;;;;;4977469;28;20031;-74
2023/03/31 05:02:52;;;;;;;10.77;6.95;;;;;;;;;;4963319;28;20046;-75
2023/03/31 05:05:38;;;;;;;10.90;6.95;;;;;;;;;;4963270;28;20097;-74
2023/03/31 05:08:23;;;;;;;13.77;7.75;;;;;;;;;;4977173;28;20018;-73
2023/03/31 05:11:10;;;;;;;10.50;7.05;;;;;;;;;;4976754;28;20027;-75
2023/03/31 05:13:55;;;;;;;12.88;7.40;;;;;;;;;;4976590;28;20499;-74
2023/03/31 05:16:42;;;;;;;11.18;7.32;;;;;;;;;;4975906;28;20046;-73
2023/03/31 05:19:27;;;;;;;15.02;8.40;;;;;;;;;;4977026;28;20023;-74
2023/03/31 05:22:13;;;;;;;12.23;7.40;;;;;;;;;;4976996;28;20019;-75
2023/03/31 05:24:58;;;;;;;11.82;7.97;;;;;;;;;;4978036;28;20026;-75
2023/03/31 05:27:46;;;;;;;18.13;8.82;;;;;;;;;;4977627;28;20532;-75
2023/03/31 05:30:31;;;;;;;16.92;10.07;;;;;;;;;;4977439;28;20030;-76
2023/03/31 05:33:17;;;;;;;45.53;27.08;;;;;;;;;;4978450;28;20023;-75
2023/03/31 05:36:03;;;;;;;16.45;10.63;;;;;;;;;;4979758;28;20057;-76
2023/03/31 05:38:48;;;;;;;15.50;9.75;;;;;;;;;;4970865;28;20096;-74
2023/03/31 05:41:34;;;;;;;15.55;9.48;;;;;;;;;;4984779;28;20036;-76
2023/03/31 05:44:20;;;;;;;20.95;11.45;;;;;;;;;;4971397;28;20030;-77
2023/03/31 05:47:05;;;;;;;25.38;13.20;;;;;;;;;;4983349;28;20027;-77
2023/03/31 05:49:52;;;;;;;22.08;13.07;;;;;;;;;;4984137;28;20106;-76
2023/03/31 05:52:37;;;;;;;24.25;13.88;;;;;;;;;;4970572;28;20023;-75
2023/03/31 05:55:23;;;;;;;22.17;12.73;;;;;;;;;;4971584;28;20015;-76
2023/03/31 05:58:08;;;;;;;18.30;11.40;;;;;;;;;;4970268;28;20015;-76
2023/03/31 06:01:07;;;;;;;19.95;11.90;;;;;;;;;;4985461;28;20121;-76
2023/03/31 06:03:53;;;;;;;19.27;12.43;;;;;;;;;;4983190;28;20027;-75
2023/03/31 06:06:39;;;;;;;21.17;11.60;;;;;;;;;;4986351;28;20030;-76
2023/03/31 06:09:24;;;;;;;21.63;12.55;;;;;;;;;;4986782;28;20027;-75
2023/03/31 06:12:10;;;;;;;23.65;12.23;;;;;;;;;;4998063;28;20033;-74
2023/03/31 06:14:56;;;;;;;24.35;13.70;;;;;;;;;;4976898;28;20026;-76
2023/03/31 06:17:41;;;;;;;21.88;13.07;;;;;;;;;;4984787;28;20019;-75
2023/03/31 06:20:27;;;;;;;25.92;12.88;;;;;;;;;;4982462;28;20023;-74
2023/03/31 06:23:12;;;;;;;18.27;11.48;;;;;;;;;;4983664;28;20086;-76
2023/03/31 06:26:05;;;;;;;21.35;12.32;;;;;;;;;;4973806;28;20031;-74
2023/03/31 06:28:51;;;;;;;20.25;12.45;;;;;;;;;;4972822;28;20023;-75
2023/03/31 06:31:37;;;;;;;17.13;11.30;;;;;;;;;;4970465;28;20101;-76
2023/03/31 06:34:22;;;;;;;19.48;11.93;;;;;;;;;;4968552;28;20023;-74
2023/03/31 06:37:08;;;;;;;22.35;12.82;;;;;;;;;;4982979;28;20019;-75
2023/03/31 06:39:54;;;;;;;20.20;12.55;;;;;;;;;;4983346;28;20471;-75
2023/03/31 06:42:39;;;;;;;22.98;13.70;;;;;;;;;;4970808;28;20041;-74
2023/03/31 06:45:25;;;;;;;22.80;14.15;;;;;;;;;;4969974;28;20387;-73
2023/03/31 06:48:11;;;;;;;20.63;13.23;;;;;;;;;;4982045;28;20031;-74
2023/03/31 06:51:00;;;;;;;20.00;10.75;;;;;;;;;;4980528;28;20364;-75
2023/03/31 06:53:46;;;;;;;16.90;10.63;;;;;;;;;;4966705;28;20085;-77
2023/03/31 06:56:32;;;;;;;19.63;10.93;;;;;;;;;;4967248;28;20074;-76
2023/03/31 06:59:17;;;;;;;17.58;9.77;;;;;;;;;;4982703;28;20135;-74
2023/03/31 07:02:03;;;;;;;20.33;11.80;;;;;;;;;;4966227;28;20018;-74
2023/03/31 07:04:48;;;;;;;19.13;11.25;;;;;;;;;;4979140;28;20018;-73
2023/03/31 07:07:34;;;;;;;22.83;12.18;;;;;;;;;;4979642;28;20165;-72
2023/03/31 07:10:20;;;;;;;19.60;12.00;;;;;;;;;;4964692;28;20023;-73
2023/03/31 07:13:06;;;;;;;13.98;9.57;;;;;;;;;;4978519;28;20416;-74
2023/03/31 07:15:52;;;;;;;16.58;9.65;;;;;;;;;;4965549;28;20027;-72
2023/03/31 07:18:40;;;;;;;12.07;7.38;;;;;;;;;;4965424;28;20030;-72
2023/03/31 07:21:26;;;;;;;14.07;8.45;;;;;;;;;;4965544;28;20456;-73
2023/03/31 07:24:12;;;;;;;10.77;7.45;;;;;;;;;;4978724;28;20070;-75
2023/03/31 07:26:57;;;;;;;12.35;7.13;;;;;;;;;;4965925;28;20019;-74
2023/03/31 07:29:43;;;;;;;11.50;7.32;;;;;;;;;;4978680;28;20029;-74
2023/03/31 07:32:28;;;;;;;14.95;8.88;;;;;;;;;;4978439;28;20019;-75
2023/03/31 07:35:14;;;;;;;15.00;9.15;;;;;;;;;;4964954;28;20023;-74
2023/03/31 07:38:00;;;;;;;13.70;9.02;;;;;;;;;;4965475;28;20029;-73
2023/03/31 07:40:46;;;;;;;16.60;9.50;;;;;;;;;;4976353;28;20030;-74
2023/03/31 07:43:31;;;;;;;13.43;8.65;;;;;;;;;;4964500;28;20019;-74
2023/03/31 07:46:22;;;;;;;14.23;8.40;;;;;;;;;;4977817;28;20029;-74
2023/03/31 07:49:08;;;;;;;12.40;7.88;;;;;;;;;;4964329;28;20027;-74
2023/03/31 07:51:54;;;;;;;14.18;8.38;;;;;;;;;;4979492;28;20018;-75
2023/03/31 07:54:39;;;;;;;11.77;7.45;;;;;;;;;;4963950;28;20018;-76
2023/03/31 07:57:25;;;;;;;11.55;7.10;;;;;;;;;;4978075;28;20023;-75
2023/03/31 08:00:11;;;;;;;11.05;7.20;;;;;;;;;;4978934;28;20023;-77
2023/03/31 08:02:56;;;;;;;9.95;6.38;;;;;;;;;;4964580;28;20089;-75
2023/03/31 08:05:42;;;;;;;10.95;7.38;;;;;;;;;;4977864;28;20022;-74
2023/03/31 08:08:28;;;;;;;12.52;7.90;;;;;;;;;;4963961;28;20434;-75
2023/03/31 08:11:13;;;;;;;15.32;9.15;;;;;;;;;;4926349;29;20028;-73
2023/03/31 08:13:59;;;;;;;13.70;9.05;;;;;;;;;;4939939;28;20024;-74
2023/03/31 08:16:45;;;;;;;15.52;10.43;;;;;;;;;;4946653;28;20027;-76
2023/03/31 08:19:30;;;;;;;11.32;8.48;;;;;;;;;;4963086;28;20034;-75
2023/03/31 08:22:16;;;;;;;10.45;7.45;;;;;;;;;;4978871;28;20038;-75
2023/03/31 08:25:02;;;;;;;11.85;7.38;;;;;;;;;;4997813;28;20030;-75
2023/03/31 08:27:49;;;;;;;10.75;6.70;;;;;;;;;;4996492;28;20340;-77
2023/03/31 08:30:39;;;;;;;10.10;7.20;;;;;;;;;;4981867;28;20026;-76
2023/03/31 08:33:25;;;;;;;12.02;8.57;;;;;;;;;;4981574;28;20409;-74
2023/03/31 08:36:11;;;;;;;11.73;8.65;;;;;;;;;;4982444;28;20430;-75
2023/03/31 08:38:56;;;;;;;13.65;8.25;;;;;;;;;;5015209;28;20033;-76
2023/03/31 08:41:45;;;;;;;10.73;6.95;;;;;;;;;;4997488;28;20022;-75
2023/03/31 08:44:37;;;;;;;11.98;7.15;;;;;;;;;;4995737;28;20018;-75
2023/03/31 08:47:24;;;;;;;13.13;8.05;;;;;;;;;;4990989;28;20396;-74
2023/03/31 08:50:12;;;;;;;13.77;7.63;;;;;;;;;;4975736;28;20027;-75
2023/03/31 08:53:21;;;;;;;8.98;5.38;;;;;;;;;;4976798;28;20113;-76
2023/03/31 08:56:08;;;;;;;9.65;6.25;;;;;;;;;;4989629;28;20037;-76
2023/03/31 08:58:54;;;;;;;8.48;5.70;;;;;;;;;;4977260;28;20048;-74
2023/03/31 09:01:54;;;;;;;8.07;5.93;;;;;;;;;;4975872;28;20443;-75
2023/03/31 09:04:52;;;;;;;8.15;5.40;;;;;;;;;;4976157;28;20367;-75
2023/03/31 09:07:56;;;;;;;9.20;5.20;;;;;;;;;;4975643;28;20030;-75
2023/03/31 09:10:45;;;;;;;8.93;5.53;;;;;;;;;;4976712;28;20030;-76
2023/03/31 09:13:30;;;;;;;11.60;4.97;;;;;;;;;;4975820;28;20019;-74
2023/03/31 09:16:35;;;;;;;7.35;5.10;;;;;;;;;;4976322;28;20028;-75
2023/03/31 09:19:41;;;;;;;8.35;4.95;;;;;;;;;;4976624;28;20033;-75
2023/03/31 09:22:30;;;;;;;8.20;4.88;;;;;;;;;;4947933;28;20046;-76
2023/03/31 09:25:22;;;;;;;7.75;4.53;;;;;;;;;;4977408;28;20029;-75
2023/03/31 09:28:17;;;;;;;7.03;4.60;;;;;;;;;;4977881;28;20046;-76
2023/03/31 09:31:21;;;;;;;6.18;4.50;;;;;;;;;;4976904;28;20541;-76
2023/03/31 09:34:11;;;;;;;6.65;4.85;;;;;;;;;;4962935;28;20054;-76
2023/03/31 09:36:57;;;;;;;14.43;5.40;;;;;;;;;;4977187;28;20050;-76
2023/03/31 09:39:42;;;;;;;9.68;5.03;;;;;;;;;;4975945;28;20034;-75
2023/03/31 09:42:28;;;;;;;9.60;4.68;;;;;;;;;;4977032;28;20045;-75
2023/03/31 09:45:15;;;;;;;8.40;4.72;;;;;;;;;;4975970;28;20105;-75
2023/03/31 09:48:03;;;;;;;10.30;4.60;;;;;;;;;;4960957;28;20027;-76
2023/03/31 09:50:51;;;;;;;10.48;4.70;;;;;;;;;;4976101;28;20026;-75
2023/03/31 09:53:36;;;;;;;11.20;4.88;;;;;;;;;;4976797;28;20019;-74
2023/03/31 09:56:40;;;;;;;11.02;5.00;;;;;;;;;;4977934;28;20022;-75
2023/03/31 09:59:29;;;;;;;8.02;5.38;;;;;;;;;;4963475;28;20141;-73
2023/03/31 10:02:35;;;;;;;9.50;5.65;;;;;;;;;;4979010;28;20023;-74
2023/03/31 10:05:39;;;;;;;10.80;5.80;;;;;;;;;;4977903;28;20086;-74
2023/03/31 10:08:38;;;;;;;9.35;5.85;;;;;;;;;;4976884;28;20054;-75
2023/03/31 10:11:26;;;;;;;8.45;5.30;;;;;;;;;;4977324;28;20443;-74
2023/03/31 10:14:14;;;;;;;8.18;5.63;;;;;;;;;;4962607;28;20062;-75
2023/03/31 10:17:03;;;;;;;9.32;6.13;;;;;;;;;;4975761;28;20015;-74
2023/03/31 10:19:53;;;;;;;9.57;6.15;;;;;;;;;;4994173;28;20022;-74
2023/03/31 10:22:42;;;;;;;9.48;6.22;;;;;;;;;;4997567;28;20360;-74
2023/03/31 10:25:28;;;;;;;10.57;6.13;;;;;;;;;;4999439;28;20041;-74
2023/03/31 10:28:18;;;;;;;9.85;6.80;;;;;;;;;;4998791;28;20018;-75
2023/03/31 10:31:04;;;;;;;7.78;5.90;;;;;;;;;;4998271;28;20033;-75
2023/03/31 10:33:50;;;;;;;14.07;7.30;;;;;;;;;;4998409;28;20084;-75
2023/03/31 10:36:36;;;;;;;9.77;7.65;;;;;;;;;;4999463;28;20451;-74
2023/03/31 10:39:30;;;;;;;11.65;7.47;;;;;;;;;;4999462;28;20029;-75
2023/03/31 10:42:22;;;;;;;19.10;14.18;;;;;;;;;;4999424;28;20019;-75
2023/03/31 10:45:20;;;;;;;12.90;9.75;;;;;;;;;;4998641;28;20027;-76
2023/03/31 10:48:15;;;;;;;9.05;7.78;;;;;;;;;;4995251;28;20436;-76
2023/03/31 10:51:04;;;;;;;11.80;8.25;;;;;;;;;;4967057;28;20031;-75
2023/03/31 10:53:51;;;;;;;10.85;7.78;;;;;;;;;;4980455;28;20030;-77
2023/03/31 10:56:47;;;;;;;13.13;7.40;;;;;;;;;;4965940;28;20019;-76
2023/03/31 10:59:39;;;;;;;9.38;7.40;;;;;;;;;;4980264;28;20031;-75
2023/03/31 11:02:27;;;;;;;11.95;7.22;;;;;;;;;;4982744;28;20026;-75
2023/03/31 11:05:33;;;;;;;10.63;7.10;;;;;;;;;;4982211;28;20022;-75
2023/03/31 11:08:21;;;;;;;9.05;7.47;;;;;;;;;;4972934;28;20411;-75
2023/03/31 11:11:26;;;;;;;9.32;7.28;;;;;;;;;;4966755;28;20117;-74
2023/03/31 11:14:23;;;;;;;11.35;7.40;;;;;;;;;;4981882;28;20027;-75
2023/03/31 11:17:21;;;;;;;8.50;6.65;;;;;;;;;;4980396;28;20026;-77
2023/03/31 11:20:08;;;;;;;8.05;6.55;;;;;;;;;;4964815;28;20027;-75
2023/03/31 11:22:56;;;;;;;9.10;6.20;;;;;;;;;;4965490;28;20133;-74
2023/03/31 11:25:48;;;;;;;7.97;5.40;;;;;;;;;;4973753;28;20026;-73
2023/03/31 11:28:34;;;;;;;9.35;5.75;;;;;;;;;;4984512;28;20046;-74
2023/03/31 11:31:19;;;;;;;8.20;5.68;;;;;;;;;;4983901;28;20026;-76
2023/03/31 11:34:11;;;;;;;9.93;5.22;;;;;;;;;;4977594;28;20443;-76
2023/03/31 11:36:57;;;;;;;6.80;4.63;;;;;;;;;;4974137;28;20080;-76
2023/03/31 11:40:06;;;;;;;6.60;4.47;;;;;;;;;;4997270;28;20057;-74
2023/03/31 11:42:57;;;;;;;9.98;4.25;;;;;;;;;;4996923;28;20034;-75
2023/03/31 11:45:47;;;;;;;8.23;4.13;;;;;;;;;;4996686;28;20018;-75
2023/03/31 11:48:39;;;;;;;6.35;3.70;;;;;;;;;;4997727;28;20030;-76
2023/03/31 11:51:27;;;;;;;6.40;3.72;;;;;;;;;;4988464;28;20401;-74
2023/03/31 11:54:23;;;;;;;7.35;3.42;;;;;;;;;;4982459;28;20018;-76
2023/03/31 11:57:18;;;;;;;4.03;3.13;;;;;;;;;;4996597;28;20522;-76
2023/03/31 12:00:21;;;;;;;5.03;3.00;;;;;;;;;;4982618;28;20109;-75
2023/03/31 12:03:16;;;;;;;4.70;3.05;;;;;;;;;;4996943;28;20050;-73
2023/03/31 12:06:04;;;;;;;6.05;3.17;;;;;;;;;;4982979;28;20037;-75
2023/03/31 12:08:53;;;;;;;5.07;2.85;;;;;;;;;;4983594;28;20025;-76
2023/03/31 12:11:44;;;;;;;4.82;2.80;;;;;;;;;;4997499;28;20363;-74
2023/03/31 12:14:33;;;;;;;5.53;2.92;;;;;;;;;;4982639;28;20022;-75
2023/03/31 12:17:21;;;;;;;19.33;7.93;;;;;;;;;;4997684;28;20018;-75
2023/03/31 12:20:20;;;;;;;6.40;2.85;;;;;;;;;;4982538;28;20033;-73
2023/03/31 12:23:12;;;;;;;4.72;2.50;;;;;;;;;;4982065;28;20069;-76
2023/03/31 12:26:03;;;;;;;7.43;3.13;;;;;;;;;;4997889;28;20022;-75
2023/03/31 12:28:52;;;;;;;7.50;2.85;;;;;;;;;;4997634;28;20036;-75
2023/03/31 12:31:38;;;;;;;4.60;2.13;;;;;;;;;;4982721;28;20029;-75
2023/03/31 12:34:25;;;;;;;4.28;2.17;;;;;;;;;;4996369;28;20029;-74
2023/03/31 12:37:23;;;;;;;6.55;2.20;;;;;;;;;;4997937;28;20418;-75
2023/03/31 12:40:14;;;;;;;3.92;2.30;;;;;;;;;;4983291;28;20347;-75
2023/03/31 12:43:06;;;;;;;3.28;2.50;;;;;;;;;;4978016;28;20023;-75
2023/03/31 12:45:52;;;;;;;6.40;2.70;;;;;;;;;;4977297;28;20069;-75
2023/03/31 12:48:42;;;;;;;8.02;2.80;;;;;;;;;;4977297;28;20027;-76
2023/03/31 12:51:43;;;;;;;4.45;2.90;;;;;;;;;;4977598;28;20106;-76
2023/03/31 12:54:50;;;;;;;7.03;3.35;;;;;;;;;;4977473;28;20023;-76
2023/03/31 12:57:36;;;;;;;5.78;3.30;;;;;;;;;;4947849;28;20038;-77
2023/03/31 13:00:26;;;;;;;3.70;3.10;;;;;;;;;;4977678;28;20045;-75
2023/03/31 13:03:35;;;;;;;8.05;3.28;;;;;;;;;;4977816;28;20027;-75
2023/03/31 13:06:27;;;;;;;13.77;3.90;;;;;;;;;;4977479;28;20448;-76
2023/03/31 13:09:12;;;;;;;4.40;3.33;;;;;;;;;;4976662;28;20463;-77
2023/03/31 13:12:05;;;;;;;5.63;3.42;;;;;;;;;;4977457;28;20027;-75
2023/03/31 13:14:53;;;;;;;5.80;3.38;;;;;;;;;;4977724;28;20026;-76
2023/03/31 13:17:40;;;;;;;7.03;3.33;;;;;;;;;;4977178;28;20034;-74
2023/03/31 13:20:30;;;;;;;6.82;4.13;;;;;;;;;;4977273;28;20109;-73
2023/03/31 13:23:18;;;;;;;4.45;3.58;;;;;;;;;;4976960;28;20098;-74
2023/03/31 13:26:05;;;;;;;5.00;3.72;;;;;;;;;;4976785;28;20097;-74
2023/03/31 13:29:17;;;;;;;7.45;3.65;;;;;;;;;;4977994;28;20038;-74
2023/03/31 13:32:03;;;;;;;6.18;3.47;;;;;;;;;;4976090;28;20045;-75
2023/03/31 13:34:55;;;;;;;6.43;3.50;;;;;;;;;;4977110;28;20034;-75
2023/03/31 13:38:04;;;;;;;6.53;3.30;;;;;;;;;;4977224;28;20030;-76
2023/03/31 13:40:58;;;;;;;7.85;3.40;;;;;;;;;;4951457;28;20519;-74
2023/03/31 13:44:03;;;;;;;6.95;3.30;;;;;;;;;;4976990;28;20037;-75
2023/03/31 13:46:49;;;;;;;6.47;3.30;;;;;;;;;;4987657;28;20324;-74
2023/03/31 13:50:02;;;;;;;7.88;3.38;;;;;;;;;;4977544;28;20106;-76
2023/03/31 13:53:07;;;;;;;5.03;3.17;;;;;;;;;;4963919;28;20109;-75
2023/03/31 13:55:58;;;;;;;10.60;2.90;;;;;;;;;;4977074;28;20054;-75
2023/03/31 13:59:07;;;;;;;6.70;2.90;;;;;;;;;;4979472;28;20035;-75
2023/03/31 14:02:04;;;;;;;7.75;3.10;;;;;;;;;;4979996;28;20466;-75
2023/03/31 14:05:23;;;;;;;9.30;2.90;;;;;;;;;;4968379;28;20039;-74
2023/03/31 14:08:13;;;;;;;9.85;2.90;;;;;;;;;;4949745;28;20407;-75
2023/03/31 14:11:22;;;;;;;6.55;3.28;;;;;;;;;;4981451;28;20038;-74
2023/03/31 14:14:15;;;;;;;4.97;3.08;;;;;;;;;;4967508;28;20026;-76
2023/03/31 14:17:01;;;;;;;5.20;2.70;;;;;;;;;;4980651;28;20029;-75
2023/03/31 14:20:06;;;;;;;10.00;3.13;;;;;;;;;;4981244;28;20176;-74
2023/03/31 14:23:10;;;;;;;8.55;2.88;;;;;;;;;;4966543;28;20130;-73
2023/03/31 14:26:01;;;;;;;4.10;2.50;;;;;;;;;;4981115;28;20444;-76
2023/03/31 14:29:00;;;;;;;3.97;2.67;;;;;;;;;;4966346;28;20023;-75
2023/03/31 14:31:49;;;;;;;7.00;2.85;;;;;;;;;;4980387;28;20131;-75
2023/03/31 14:34:51;;;;;;;7.53;2.65;;;;;;;;;;4980909;28;20026;-76
2023/03/31 14:37:36;;;;;;;4.00;2.47;;;;;;;;;;4980337;28;20377;-76
2023/03/31 14:40:22;;;;;;;9.38;3.15;;;;;;;;;;4989871;28;20027;-76
2023/03/31 14:43:16;;;;;;;4.88;2.95;;;;;;;;;;4999087;28;20139;-74
2023/03/31 14:46:04;;;;;;;5.95;2.53;;;;;;;;;;4998022;28;20037;-74
2023/03/31 14:48:50;;;;;;;5.03;2.58;;;;;;;;;;4999989;28;20022;-74
2023/03/31 14:51:36;;;;;;;9.57;2.97;;;;;;;;;;4999980;28;20018;-75
2023/03/31 14:54:21;;;;;;;3.55;2.83;;;;;;;;;;4984389;28;20109;-73
2023/03/31 14:57:08;;;;;;;9.20;5.07;;;;;;;;;;4998531;28;20015;-75
2023/03/31 14:59:54;;;;;;;8.18;4.85;;;;;;;;;;4999241;28;20109;-75
2023/03/31 15:02:41;;;;;;;7.55;3.47;;;;;;;;;;4998741;28;20030;-75
2023/03/31 15:05:26;;;;;;;7.55;3.00;;;;;;;;;;5000066;28;20041;-73
2023/03/31 15:08:21;;;;;;;6.18;2.47;;;;;;;;;;4997953;28;20057;-70
2023/03/31 15:11:08;;;;;;;5.45;2.50;;;;;;;;;;4997712;28;20030;-76
2023/03/31 15:13:54;;;;;;;4.88;2.40;;;;;;;;;;4992150;28;20071;-75
2023/03/31 15:16:41;;;;;;;6.97;2.40;;;;;;;;;;4979877;28;20043;-75
2023/03/31 15:19:32;;;;;;;11.43;2.33;;;;;;;;;;4979863;28;20408;-72
2023/03/31 15:22:18;;;;;;;4.20;2.10;;;;;;;;;;4979650;28;20023;-73
2023/03/31 15:25:04;;;;;;;3.75;2.00;;;;;;;;;;4978471;28;20096;-74
2023/03/31 15:27:54;;;;;;;3.45;1.95;;;;;;;;;;4978136;28;20129;-72
2023/03/31 15:30:39;;;;;;;4.28;2.08;;;;;;;;;;4979619;28;20033;-73
2023/03/31 15:33:30;;;;;;;3.80;1.95;;;;;;;;;;4979803;28;20035;-74
2023/03/31 15:36:16;;;;;;;3.78;2.20;;;;;;;;;;4965329;28;20023;-69
2023/03/31 15:39:03;;;;;;;2.80;2.20;;;;;;;;;;4983851;28;20027;-74
2023/03/31 15:41:49;;;;;;;7.18;2.97;;;;;;;;;;4984761;28;20022;-74
2023/03/31 15:44:38;;;;;;;8.90;2.40;;;;;;;;;;4981584;28;20038;-73
2023/03/31 15:47:28;;;;;;;6.20;2.33;;;;;;;;;;4980375;28;20085;-73
2023/03/31 15:50:13;;;;;;;11.75;2.65;;;;;;;;;;4979611;28;20030;-74
2023/03/31 15:53:00;;;;;;;4.70;2.05;;;;;;;;;;4981453;28;20027;-74
2023/03/31 15:55:45;;;;;;;3.30;2.00;;;;;;;;;;4972652;28;20022;-75
2023/03/31 15:58:52;;;;;;;4.93;2.20;;;;;;;;;;4998488;28;20022;-75
2023/03/31 16:01:41;;;;;;;4.97;2.65;;;;;;;;;;4999563;28;20109;-75
2023/03/31 16:04:29;;;;;;;4.57;1.95;;;;;;;;;;4966826;28;20022;-76
2023/03/31 16:07:17;;;;;;;7.05;2.50;;;;;;;;;;4978626;28;20474;-74
2023/03/31 16:10:13;;;;;;;4.75;2.50;;;;;;;;;;4965980;28;20039;-75
2023/03/31 16:13:01;;;;;;;8.93;3.55;;;;;;;;;;4982365;28;20027;-75
2023/03/31 16:15:48;;;;;;;7.93;3.20;;;;;;;;;;4977837;28;20068;-74
2023/03/31 16:18:36;;;;;;;10.38;2.90;;;;;;;;;;4978426;28;20462;-74
2023/03/31 16:21:24;;;;;;;5.85;3.00;;;;;;;;;;4961834;28;20435;-74
2023/03/31 16:24:10;;;;;;;4.53;2.70;;;;;;;;;;4977063;28;20107;-75
2023/03/31 16:27:05;;;;;;;5.28;2.40;;;;;;;;;;4973800;28;20030;-75
2023/03/31 16:30:03;;;;;;;5.38;2.70;;;;;;;;;;4962612;28;20107;-73
2023/03/31 16:33:08;;;;;;;6.65;2.65;;;;;;;;;;4990235;28;20014;-75
2023/03/31 16:35:55;;;;;;;5.03;2.70;;;;;;;;;;4977863;28;20019;-73
2023/03/31 16:38:40;;;;;;;11.27;3.22;;;;;;;;;;4977949;28;20448;-75
2023/03/31 16:41:30;;;;;;;4.75;3.20;;;;;;;;;;4963509;28;20434;-75
2023/03/31 16:44:15;;;;;;;8.25;3.63;;;;;;;;;;4977618;28;20503;-74
2023/03/31 16:47:01;;;;;;;10.15;3.75;;;;;;;;;;4976313;28;20035;-75
2023/03/31 16:49:46;;;;;;;7.43;2.90;;;;;;;;;;4975668;28;20110;-75